sensor_id;sensor_type;location;lat;lon;timestamp;P1;durP1;ratioP1;P2;durP2;ratioP2
12480;SDS011;6305;48.398;11.762;2023-04-03T00:01:00;5.30;;;4.15;;
12480;SDS011;6305;48.398;11.762;2023-04-03T00:03:27;5.57;;;4.20;;
12480;SDS011;6305;48.398;11.762;2023-04-03T00:05:54;6.68;;;4.45;;
12480;SDS011;6305;48.398;11.762;2023-04-03T00:08:21;5.95;;;3.95;;
12480;SDS011;6305;48.398;11.762;2023-04-03T00:10:48;6.97;;;4.20;;
12480;SDS011;6305;48.398;11.762;2023-04-03T00:13:17;4.90;;;3.97;;
12480;SDS011;6305;48.398;11.762;2023-04-03T00:15:44;6.07;;;4.00;;
12480;SDS011;6305;48.398;11.762;2023-04-03T00:18:14;6.18;;;4.47;;
12480;SDS011;6305;48.398;11.762;2023-04-03T00:20:41;5.60;;;3.83;;
12480;SDS011;6305;48.398;11.762;2023-04-03T00:23:08;4.70;;;3.90;;
12480;SDS011;6305;48.398;11.762;2023-04-03T00:25:35;4.97;;;3.88;;
12480;SDS011;6305;48.398;11.762;2023-04-03T00:28:02;5.80;;;3.87;;
12480;SDS011;6305;48.398;11.762;2023-04-03T00:30:32;5.80;;;3.97;;
12480;SDS011;6305;48.398;11.762;2023-04-03T00:32:59;5.93;;;4.00;;
12480;SDS011;6305;48.398;11.762;2023-04-03T00:35:27;5.38;;;4.10;;
12480;SDS011;6305;48.398;11.762;2023-04-03T00:37:55;5.03;;;3.80;;
12480;SDS011;6305;48.398;11.762;2023-04-03T00:40:24;5.68;;;3.97;;
12480;SDS011;6305;48.398;11.762;2023-04-03T00:42:55;5.13;;;3.80;;
12480;SDS011;6305;48.398;11.762;2023-04-03T00:45:28;4.43;;;3.58;;
12480;SDS011;6305;48.398;11.762;2023-04-03T00:47:59;4.67;;;3.60;;
12480;SDS011;6305;48.398;11.762;2023-04-03T00:50:30;6.32;;;3.65;;
12480;SDS011;6305;48.398;11.762;2023-04-03T00:53:00;5.50;;;3.33;;
12480;SDS011;6305;48.398;11.762;2023-04-03T00:55:28;3.80;;;3.40;;
12480;SDS011;6305;48.398;11.762;2023-04-03T00:57:56;4.95;;;3.70;;
12480;SDS011;6305;48.398;11.762;2023-04-03T01:00:24;4.30;;;3.55;;
12480;SDS011;6305;48.398;11.762;2023-04-03T01:02:52;3.40;;;2.90;;
12480;SDS011;6305;48.398;11.762;2023-04-03T01:05:21;5.07;;;3.13;;
12480;SDS011;6305;48.398;11.762;2023-04-03T01:07:49;4.27;;;3.17;;
12480;SDS011;6305;48.398;11.762;2023-04-03T01:10:17;4.78;;;3.08;;
12480;SDS011;6305;48.398;11.762;2023-04-03T01:12:47;4.82;;;3.03;;
12480;SDS011;6305;48.398;11.762;2023-04-03T01:15:16;3.20;;;2.90;;
12480;SDS011;6305;48.398;11.762;2023-04-03T01:17:45;4.53;;;3.20;;
12480;SDS011;6305;48.398;11.762;2023-04-03T01:23:17;4.27;;;3.20;;
12480;SDS011;6305;48.398;11.762;2023-04-03T01:25:55;3.63;;;2.97;;
12480;SDS011;6305;48.398;11.762;2023-04-03T01:28:23;3.53;;;2.90;;
12480;SDS011;6305;48.398;11.762;2023-04-03T01:30:53;4.13;;;3.00;;
12480;SDS011;6305;48.398;11.762;2023-04-03T01:33:30;3.40;;;2.88;;
12480;SDS011;6305;48.398;11.762;2023-04-03T01:35:57;4.03;;;2.97;;
12480;SDS011;6305;48.398;11.762;2023-04-03T01:38:24;4.20;;;3.17;;
12480;SDS011;6305;48.398;11.762;2023-04-03T01:40:57;5.03;;;3.07;;
12480;SDS011;6305;48.398;11.762;2023-04-03T01:43:26;4.13;;;3.00;;
12480;SDS011;6305;48.398;11.762;2023-04-03T01:45:53;4.77;;;3.17;;
12480;SDS011;6305;48.398;11.762;2023-04-03T01:48:20;3.80;;;2.70;;
12480;SDS011;6305;48.398;11.762;2023-04-03T01:50:51;5.33;;;3.30;;
12480;SDS011;6305;48.398;11.762;2023-04-03T01:53:20;3.45;;;2.88;;
12480;SDS011;6305;48.398;11.762;2023-04-03T01:55:49;3.87;;;2.93;;
12480;SDS011;6305;48.398;11.762;2023-04-03T01:58:17;3.05;;;2.78;;
12480;SDS011;6305;48.398;11.762;2023-04-03T02:00:47;3.90;;;3.27;;
12480;SDS011;6305;48.398;11.762;2023-04-03T02:03:14;3.87;;;3.20;;
12480;SDS011;6305;48.398;11.762;2023-04-03T02:05:44;3.77;;;3.20;;
12480;SDS011;6305;48.398;11.762;2023-04-03T02:08:12;4.77;;;3.27;;
12480;SDS011;6305;48.398;11.762;2023-04-03T02:10:48;3.65;;;2.90;;
12480;SDS011;6305;48.398;11.762;2023-04-03T02:13:21;5.70;;;3.20;;
12480;SDS011;6305;48.398;11.762;2023-04-03T02:15:48;4.17;;;3.50;;
12480;SDS011;6305;48.398;11.762;2023-04-03T02:18:16;3.38;;;3.00;;
12480;SDS011;6305;48.398;11.762;2023-04-03T02:20:43;5.90;;;3.60;;
12480;SDS011;6305;48.398;11.762;2023-04-03T02:23:10;4.77;;;3.50;;
12480;SDS011;6305;48.398;11.762;2023-04-03T02:25:39;5.47;;;3.45;;
12480;SDS011;6305;48.398;11.762;2023-04-03T02:28:05;5.67;;;3.63;;
12480;SDS011;6305;48.398;11.762;2023-04-03T02:30:36;4.50;;;3.50;;
12480;SDS011;6305;48.398;11.762;2023-04-03T02:33:03;5.47;;;3.40;;
12480;SDS011;6305;48.398;11.762;2023-04-03T02:35:31;4.93;;;3.10;;
12480;SDS011;6305;48.398;11.762;2023-04-03T02:37:58;3.88;;;3.08;;
12480;SDS011;6305;48.398;11.762;2023-04-03T02:40:27;5.87;;;3.10;;
12480;SDS011;6305;48.398;11.762;2023-04-03T02:42:54;3.77;;;3.10;;
12480;SDS011;6305;48.398;11.762;2023-04-03T02:45:23;4.83;;;3.17;;
12480;SDS011;6305;48.398;11.762;2023-04-03T02:47:50;4.83;;;3.20;;
12480;SDS011;6305;48.398;11.762;2023-04-03T02:50:17;5.07;;;3.60;;
12480;SDS011;6305;48.398;11.762;2023-04-03T02:52:44;5.07;;;3.20;;
12480;SDS011;6305;48.398;11.762;2023-04-03T02:55:13;4.33;;;3.20;;
12480;SDS011;6305;48.398;11.762;2023-04-03T02:57:44;4.57;;;3.63;;
12480;SDS011;6305;48.398;11.762;2023-04-03T03:00:12;5.33;;;3.73;;
12480;SDS011;6305;48.398;11.762;2023-04-03T03:02:40;4.20;;;3.63;;
12480;SDS011;6305;48.398;11.762;2023-04-03T03:05:08;5.07;;;3.60;;
12480;SDS011;6305;48.398;11.762;2023-04-03T03:07:35;4.30;;;3.67;;
12480;SDS011;6305;48.398;11.762;2023-04-03T03:10:02;4.83;;;4.00;;
12480;SDS011;6305;48.398;11.762;2023-04-03T03:12:29;4.83;;;3.60;;
12480;SDS011;6305;48.398;11.762;2023-04-03T03:14:58;4.20;;;3.50;;
12480;SDS011;6305;48.398;11.762;2023-04-03T03:17:25;5.33;;;3.97;;
12480;SDS011;6305;48.398;11.762;2023-04-03T03:19:52;4.73;;;3.77;;
12480;SDS011;6305;48.398;11.762;2023-04-03T03:22:19;4.43;;;3.53;;
12480;SDS011;6305;48.398;11.762;2023-04-03T03:24:46;5.57;;;4.17;;
12480;SDS011;6305;48.398;11.762;2023-04-03T03:27:13;6.77;;;4.20;;
12480;SDS011;6305;48.398;11.762;2023-04-03T03:29:41;6.40;;;4.13;;
12480;SDS011;6305;48.398;11.762;2023-04-03T03:32:10;5.80;;;4.30;;
12480;SDS011;6305;48.398;11.762;2023-04-03T03:34:37;5.03;;;3.80;;
12480;SDS011;6305;48.398;11.762;2023-04-03T03:37:04;6.23;;;4.00;;
12480;SDS011;6305;48.398;11.762;2023-04-03T03:39:31;4.90;;;3.97;;
12480;SDS011;6305;48.398;11.762;2023-04-03T03:41:58;6.07;;;4.40;;
12480;SDS011;6305;48.398;11.762;2023-04-03T03:44:25;6.63;;;4.10;;
12480;SDS011;6305;48.398;11.762;2023-04-03T03:46:54;5.00;;;3.80;;
12480;SDS011;6305;48.398;11.762;2023-04-03T03:49:23;7.43;;;4.17;;
12480;SDS011;6305;48.398;11.762;2023-04-03T03:51:50;5.90;;;4.07;;
12480;SDS011;6305;48.398;11.762;2023-04-03T03:54:17;6.47;;;4.17;;
12480;SDS011;6305;48.398;11.762;2023-04-03T03:56:44;4.77;;;3.93;;
12480;SDS011;6305;48.398;11.762;2023-04-03T03:59:11;5.53;;;3.90;;
12480;SDS011;6305;48.398;11.762;2023-04-03T04:01:40;7.30;;;4.00;;
12480;SDS011;6305;48.398;11.762;2023-04-03T04:04:07;5.80;;;3.87;;
12480;SDS011;6305;48.398;11.762;2023-04-03T04:06:36;6.60;;;4.20;;
12480;SDS011;6305;48.398;11.762;2023-04-03T04:09:06;5.67;;;4.10;;
12480;SDS011;6305;48.398;11.762;2023-04-03T04:11:34;8.40;;;4.23;;
12480;SDS011;6305;48.398;11.762;2023-04-03T04:14:02;5.33;;;3.90;;
12480;SDS011;6305;48.398;11.762;2023-04-03T04:16:30;5.80;;;4.07;;
12480;SDS011;6305;48.398;11.762;2023-04-03T04:19:02;7.23;;;4.40;;
12480;SDS011;6305;48.398;11.762;2023-04-03T04:21:30;6.30;;;4.40;;
12480;SDS011;6305;48.398;11.762;2023-04-03T04:23:59;5.67;;;4.20;;
12480;SDS011;6305;48.398;11.762;2023-04-03T04:26:26;4.80;;;3.87;;
12480;SDS011;6305;48.398;11.762;2023-04-03T04:28:52;6.73;;;4.23;;
12480;SDS011;6305;48.398;11.762;2023-04-03T04:31:20;4.97;;;4.13;;
12480;SDS011;6305;48.398;11.762;2023-04-03T04:33:47;6.80;;;4.03;;
12480;SDS011;6305;48.398;11.762;2023-04-03T04:36:15;7.53;;;4.00;;
12480;SDS011;6305;48.398;11.762;2023-04-03T04:38:44;6.57;;;4.63;;
12480;SDS011;6305;48.398;11.762;2023-04-03T04:41:13;5.07;;;4.07;;
12480;SDS011;6305;48.398;11.762;2023-04-03T04:43:40;6.77;;;4.50;;
12480;SDS011;6305;48.398;11.762;2023-04-03T04:46:09;5.93;;;4.60;;
12480;SDS011;6305;48.398;11.762;2023-04-03T04:48:42;8.00;;;4.53;;
12480;SDS011;6305;48.398;11.762;2023-04-03T04:51:10;5.70;;;4.47;;
12480;SDS011;6305;48.398;11.762;2023-04-03T04:53:41;7.13;;;4.70;;
12480;SDS011;6305;48.398;11.762;2023-04-03T04:56:12;7.90;;;4.97;;
12480;SDS011;6305;48.398;11.762;2023-04-03T04:58:41;6.63;;;4.83;;
12480;SDS011;6305;48.398;11.762;2023-04-03T05:01:09;5.27;;;4.20;;
12480;SDS011;6305;48.398;11.762;2023-04-03T05:03:48;6.32;;;4.78;;
12480;SDS011;6305;48.398;11.762;2023-04-03T05:06:17;7.53;;;5.20;;
12480;SDS011;6305;48.398;11.762;2023-04-03T05:08:44;5.60;;;4.60;;
12480;SDS011;6305;48.398;11.762;2023-04-03T05:11:13;6.47;;;4.67;;
12480;SDS011;6305;48.398;11.762;2023-04-03T05:13:42;7.90;;;4.70;;
12480;SDS011;6305;48.398;11.762;2023-04-03T05:16:09;6.83;;;4.50;;
12480;SDS011;6305;48.398;11.762;2023-04-03T05:18:37;6.63;;;5.23;;
12480;SDS011;6305;48.398;11.762;2023-04-03T05:21:08;7.47;;;4.47;;
12480;SDS011;6305;48.398;11.762;2023-04-03T05:23:39;5.37;;;4.40;;
12480;SDS011;6305;48.398;11.762;2023-04-03T05:26:05;8.53;;;4.77;;
12480;SDS011;6305;48.398;11.762;2023-04-03T05:28:34;6.27;;;4.50;;
12480;SDS011;6305;48.398;11.762;2023-04-03T05:31:01;6.07;;;4.37;;
12480;SDS011;6305;48.398;11.762;2023-04-03T05:33:33;7.43;;;4.77;;
12480;SDS011;6305;48.398;11.762;2023-04-03T05:36:02;6.85;;;4.65;;
12480;SDS011;6305;48.398;11.762;2023-04-03T05:38:32;6.93;;;4.80;;
12480;SDS011;6305;48.398;11.762;2023-04-03T05:40:59;7.90;;;4.93;;
12480;SDS011;6305;48.398;11.762;2023-04-03T05:43:26;6.00;;;4.60;;
12480;SDS011;6305;48.398;11.762;2023-04-03T05:45:55;5.87;;;4.77;;
12480;SDS011;6305;48.398;11.762;2023-04-03T05:48:25;8.20;;;5.07;;
12480;SDS011;6305;48.398;11.762;2023-04-03T05:50:52;7.67;;;4.90;;
12480;SDS011;6305;48.398;11.762;2023-04-03T05:53:23;6.93;;;5.20;;
12480;SDS011;6305;48.398;11.762;2023-04-03T05:55:54;6.72;;;4.63;;
12480;SDS011;6305;48.398;11.762;2023-04-03T05:58:22;7.15;;;4.38;;
12480;SDS011;6305;48.398;11.762;2023-04-03T06:00:51;8.05;;;4.90;;
12480;SDS011;6305;48.398;11.762;2023-04-03T06:03:20;5.53;;;4.45;;
12480;SDS011;6305;48.398;11.762;2023-04-03T06:05:52;5.68;;;4.60;;
12480;SDS011;6305;48.398;11.762;2023-04-03T06:08:19;8.90;;;5.55;;
12480;SDS011;6305;48.398;11.762;2023-04-03T06:10:46;9.52;;;5.32;;
12480;SDS011;6305;48.398;11.762;2023-04-03T06:13:13;5.88;;;4.45;;
12480;SDS011;6305;48.398;11.762;2023-04-03T06:15:40;7.00;;;5.20;;
12480;SDS011;6305;48.398;11.762;2023-04-03T06:18:08;6.07;;;4.80;;
12480;SDS011;6305;48.398;11.762;2023-04-03T06:20:36;7.53;;;4.47;;
12480;SDS011;6305;48.398;11.762;2023-04-03T06:23:03;6.95;;;4.70;;
12480;SDS011;6305;48.398;11.762;2023-04-03T06:25:30;6.83;;;4.73;;
12480;SDS011;6305;48.398;11.762;2023-04-03T06:27:58;5.15;;;4.20;;
12480;SDS011;6305;48.398;11.762;2023-04-03T06:30:26;8.30;;;4.78;;
12480;SDS011;6305;48.398;11.762;2023-04-03T06:32:53;5.50;;;4.35;;
12480;SDS011;6305;48.398;11.762;2023-04-03T06:35:21;7.10;;;5.22;;
12480;SDS011;6305;48.398;11.762;2023-04-03T06:37:50;6.28;;;4.80;;
12480;SDS011;6305;48.398;11.762;2023-04-03T06:40:18;7.43;;;4.93;;
12480;SDS011;6305;48.398;11.762;2023-04-03T06:42:48;7.32;;;4.50;;
12480;SDS011;6305;48.398;11.762;2023-04-03T06:45:17;7.40;;;5.05;;
12480;SDS011;6305;48.398;11.762;2023-04-03T06:47:44;5.82;;;4.63;;
12480;SDS011;6305;48.398;11.762;2023-04-03T06:50:11;6.18;;;4.60;;
12480;SDS011;6305;48.398;11.762;2023-04-03T06:52:39;5.35;;;4.32;;
12480;SDS011;6305;48.398;11.762;2023-04-03T06:55:09;8.32;;;5.00;;
12480;SDS011;6305;48.398;11.762;2023-04-03T06:57:36;5.20;;;4.00;;
12480;SDS011;6305;48.398;11.762;2023-04-03T07:00:04;8.63;;;4.32;;
12480;SDS011;6305;48.398;11.762;2023-04-03T07:02:32;5.20;;;4.43;;
12480;SDS011;6305;48.398;11.762;2023-04-03T07:04:59;6.90;;;4.00;;
12480;SDS011;6305;48.398;11.762;2023-04-03T07:07:26;7.18;;;4.22;;
12480;SDS011;6305;48.398;11.762;2023-04-03T07:09:53;8.88;;;4.60;;
12480;SDS011;6305;48.398;11.762;2023-04-03T07:12:21;5.95;;;4.47;;
12480;SDS011;6305;48.398;11.762;2023-04-03T07:14:48;6.43;;;4.55;;
12480;SDS011;6305;48.398;11.762;2023-04-03T07:17:15;5.25;;;4.18;;
12480;SDS011;6305;48.398;11.762;2023-04-03T07:19:42;8.45;;;4.45;;
12480;SDS011;6305;48.398;11.762;2023-04-03T07:22:09;5.53;;;4.15;;
12480;SDS011;6305;48.398;11.762;2023-04-03T07:24:37;6.88;;;4.07;;
12480;SDS011;6305;48.398;11.762;2023-04-03T07:27:04;6.30;;;3.88;;
12480;SDS011;6305;48.398;11.762;2023-04-03T07:29:34;4.88;;;4.00;;
12480;SDS011;6305;48.398;11.762;2023-04-03T07:32:01;5.65;;;3.42;;
12480;SDS011;6305;48.398;11.762;2023-04-03T07:34:29;5.18;;;3.67;;
12480;SDS011;6305;48.398;11.762;2023-04-03T07:36:56;7.97;;;4.43;;
12480;SDS011;6305;48.398;11.762;2023-04-03T07:39:24;4.60;;;3.83;;
12480;SDS011;6305;48.398;11.762;2023-04-03T07:41:51;6.50;;;3.90;;
12480;SDS011;6305;48.398;11.762;2023-04-03T07:44:18;5.63;;;4.07;;
12480;SDS011;6305;48.398;11.762;2023-04-03T07:46:46;6.25;;;3.80;;
12480;SDS011;6305;48.398;11.762;2023-04-03T07:49:15;4.63;;;3.70;;
12480;SDS011;6305;48.398;11.762;2023-04-03T07:51:43;4.32;;;3.70;;
12480;SDS011;6305;48.398;11.762;2023-04-03T07:54:10;7.82;;;4.03;;
12480;SDS011;6305;48.398;11.762;2023-04-03T07:56:37;4.57;;;3.88;;
12480;SDS011;6305;48.398;11.762;2023-04-03T07:59:04;6.47;;;4.22;;
12480;SDS011;6305;48.398;11.762;2023-04-03T08:01:31;5.88;;;4.05;;
12480;SDS011;6305;48.398;11.762;2023-04-03T08:04:00;6.55;;;3.88;;
12480;SDS011;6305;48.398;11.762;2023-04-03T08:06:27;5.22;;;3.88;;
12480;SDS011;6305;48.398;11.762;2023-04-03T08:08:55;6.07;;;4.20;;
12480;SDS011;6305;48.398;11.762;2023-04-03T08:11:23;5.65;;;3.88;;
12480;SDS011;6305;48.398;11.762;2023-04-03T08:13:51;7.20;;;4.25;;
12480;SDS011;6305;48.398;11.762;2023-04-03T08:16:20;4.15;;;3.35;;
12480;SDS011;6305;48.398;11.762;2023-04-03T08:18:52;6.80;;;3.90;;
12480;SDS011;6305;48.398;11.762;2023-04-03T08:21:20;4.70;;;3.53;;
12480;SDS011;6305;48.398;11.762;2023-04-03T08:23:48;5.90;;;3.97;;
12480;SDS011;6305;48.398;11.762;2023-04-03T08:26:16;5.00;;;4.18;;
12480;SDS011;6305;48.398;11.762;2023-04-03T08:28:44;3.72;;;3.17;;
12480;SDS011;6305;48.398;11.762;2023-04-03T08:31:12;4.35;;;3.75;;
12480;SDS011;6305;48.398;11.762;2023-04-03T08:33:43;4.68;;;4.18;;
12480;SDS011;6305;48.398;11.762;2023-04-03T08:36:18;6.00;;;3.90;;
12480;SDS011;6305;48.398;11.762;2023-04-03T08:38:48;5.70;;;3.75;;
12480;SDS011;6305;48.398;11.762;2023-04-03T08:41:16;4.93;;;3.58;;
12480;SDS011;6305;48.398;11.762;2023-04-03T08:44:01;4.85;;;3.50;;
12480;SDS011;6305;48.398;11.762;2023-04-03T08:46:46;4.32;;;3.40;;
12480;SDS011;6305;48.398;11.762;2023-04-03T08:49:37;4.63;;;3.58;;
12480;SDS011;6305;48.398;11.762;2023-04-03T08:52:14;4.30;;;3.20;;
12480;SDS011;6305;48.398;11.762;2023-04-03T08:54:48;5.60;;;3.47;;
12480;SDS011;6305;48.398;11.762;2023-04-03T08:57:17;3.70;;;3.03;;
12480;SDS011;6305;48.398;11.762;2023-04-03T08:59:52;6.25;;;3.55;;
12480;SDS011;6305;48.398;11.762;2023-04-03T09:02:26;4.68;;;3.50;;
12480;SDS011;6305;48.398;11.762;2023-04-03T09:04:57;5.63;;;3.22;;
12480;SDS011;6305;48.398;11.762;2023-04-03T09:07:33;6.82;;;3.55;;
12480;SDS011;6305;48.398;11.762;2023-04-03T09:10:06;5.72;;;3.13;;
12480;SDS011;6305;48.398;11.762;2023-04-03T09:12:37;3.80;;;2.83;;
12480;SDS011;6305;48.398;11.762;2023-04-03T09:15:10;4.47;;;2.78;;
12480;SDS011;6305;48.398;11.762;2023-04-03T09:17:46;3.67;;;2.50;;
12480;SDS011;6305;48.398;11.762;2023-04-03T09:20:23;3.35;;;2.40;;
12480;SDS011;6305;48.398;11.762;2023-04-03T09:22:57;3.97;;;2.50;;
12480;SDS011;6305;48.398;11.762;2023-04-03T09:25:25;4.55;;;2.50;;
12480;SDS011;6305;48.398;11.762;2023-04-03T09:27:53;3.88;;;2.17;;
12480;SDS011;6305;48.398;11.762;2023-04-03T09:30:22;2.92;;;2.35;;
12480;SDS011;6305;48.398;11.762;2023-04-03T09:32:52;3.75;;;2.22;;
12480;SDS011;6305;48.398;11.762;2023-04-03T09:35:21;2.83;;;2.28;;
12480;SDS011;6305;48.398;11.762;2023-04-03T09:37:51;5.13;;;2.47;;
12480;SDS011;6305;48.398;11.762;2023-04-03T09:40:37;3.60;;;1.90;;
12480;SDS011;6305;48.398;11.762;2023-04-03T09:43:24;3.72;;;2.20;;
12480;SDS011;6305;48.398;11.762;2023-04-03T09:45:54;3.88;;;2.20;;
12480;SDS011;6305;48.398;11.762;2023-04-03T09:48:23;2.97;;;2.08;;
12480;SDS011;6305;48.398;11.762;2023-04-03T09:50:53;2.97;;;1.90;;
12480;SDS011;6305;48.398;11.762;2023-04-03T09:53:31;2.55;;;1.98;;
12480;SDS011;6305;48.398;11.762;2023-04-03T09:56:03;4.65;;;2.05;;
12480;SDS011;6305;48.398;11.762;2023-04-03T09:58:32;2.38;;;1.92;;
12480;SDS011;6305;48.398;11.762;2023-04-03T10:01:04;3.00;;;2.10;;
12480;SDS011;6305;48.398;11.762;2023-04-03T10:03:31;3.33;;;1.90;;
12480;SDS011;6305;48.398;11.762;2023-04-03T10:06:01;5.80;;;2.10;;
12480;SDS011;6305;48.398;11.762;2023-04-03T10:08:29;2.97;;;2.08;;
12480;SDS011;6305;48.398;11.762;2023-04-03T10:11:12;2.67;;;1.90;;
12480;SDS011;6305;48.398;11.762;2023-04-03T10:13:55;2.75;;;1.73;;
12480;SDS011;6305;48.398;11.762;2023-04-03T10:16:26;2.80;;;2.10;;
12480;SDS011;6305;48.398;11.762;2023-04-03T10:19:03;3.78;;;2.30;;
12480;SDS011;6305;48.398;11.762;2023-04-03T10:21:40;1.92;;;1.40;;
12480;SDS011;6305;48.398;11.762;2023-04-03T10:24:13;3.05;;;1.77;;
12480;SDS011;6305;48.398;11.762;2023-04-03T10:26:49;2.78;;;1.65;;
12480;SDS011;6305;48.398;11.762;2023-04-03T10:29:27;3.05;;;1.50;;
12480;SDS011;6305;48.398;11.762;2023-04-03T10:32:10;1.92;;;1.38;;
12480;SDS011;6305;48.398;11.762;2023-04-03T10:34:50;2.58;;;1.40;;
12480;SDS011;6305;48.398;11.762;2023-04-03T10:37:22;3.53;;;1.67;;
12480;SDS011;6305;48.398;11.762;2023-04-03T10:39:53;2.13;;;1.30;;
12480;SDS011;6305;48.398;11.762;2023-04-03T10:42:27;2.92;;;1.48;;
12480;SDS011;6305;48.398;11.762;2023-04-03T10:45:03;1.90;;;1.40;;
12480;SDS011;6305;48.398;11.762;2023-04-03T10:47:43;3.10;;;1.55;;
12480;SDS011;6305;48.398;11.762;2023-04-03T10:50:26;3.20;;;1.70;;
12480;SDS011;6305;48.398;11.762;2023-04-03T10:53:00;4.00;;;1.80;;
12480;SDS011;6305;48.398;11.762;2023-04-03T10:55:34;2.38;;;1.60;;
12480;SDS011;6305;48.398;11.762;2023-04-03T10:58:09;3.20;;;2.08;;
12480;SDS011;6305;48.398;11.762;2023-04-03T11:00:45;2.53;;;1.90;;
12480;SDS011;6305;48.398;11.762;2023-04-03T11:03:15;2.20;;;1.60;;
12480;SDS011;6305;48.398;11.762;2023-04-03T11:05:49;4.78;;;2.00;;
12480;SDS011;6305;48.398;11.762;2023-04-03T11:08:23;2.55;;;1.63;;
12480;SDS011;6305;48.398;11.762;2023-04-03T11:10:54;2.08;;;1.80;;
12480;SDS011;6305;48.398;11.762;2023-04-03T11:13:26;2.63;;;1.80;;
12480;SDS011;6305;48.398;11.762;2023-04-03T11:15:59;2.13;;;1.40;;
12480;SDS011;6305;48.398;11.762;2023-04-03T11:18:27;3.42;;;1.90;;
12480;SDS011;6305;48.398;11.762;2023-04-03T11:21:02;11.73;;;2.40;;
12480;SDS011;6305;48.398;11.762;2023-04-03T11:23:34;1.95;;;1.45;;
12480;SDS011;6305;48.398;11.762;2023-04-03T11:26:07;2.22;;;1.48;;
12480;SDS011;6305;48.398;11.762;2023-04-03T11:28:38;2.10;;;1.50;;
12480;SDS011;6305;48.398;11.762;2023-04-03T11:31:09;2.03;;;1.40;;
12480;SDS011;6305;48.398;11.762;2023-04-03T11:33:44;2.30;;;1.58;;
12480;SDS011;6305;48.398;11.762;2023-04-03T11:36:20;3.78;;;1.60;;
12480;SDS011;6305;48.398;11.762;2023-04-03T11:38:51;2.33;;;1.50;;
12480;SDS011;6305;48.398;11.762;2023-04-03T11:41:24;2.33;;;1.48;;
12480;SDS011;6305;48.398;11.762;2023-04-03T11:43:58;1.67;;;1.45;;
12480;SDS011;6305;48.398;11.762;2023-04-03T11:55:41;2.60;;;1.60;;
12480;SDS011;6305;48.398;11.762;2023-04-03T11:58:19;2.75;;;1.70;;
12480;SDS011;6305;48.398;11.762;2023-04-03T12:00:50;1.75;;;1.48;;
12480;SDS011;6305;48.398;11.762;2023-04-03T12:12:43;1.92;;;1.60;;
12480;SDS011;6305;48.398;11.762;2023-04-03T12:24:32;3.05;;;1.77;;
12480;SDS011;6305;48.398;11.762;2023-04-03T12:27:02;2.63;;;1.75;;
12480;SDS011;6305;48.398;11.762;2023-04-03T12:29:33;2.90;;;1.52;;
12480;SDS011;6305;48.398;11.762;2023-04-03T12:32:06;1.25;;;1.13;;
12480;SDS011;6305;48.398;11.762;2023-04-03T12:34:50;3.05;;;1.40;;
12480;SDS011;6305;48.398;11.762;2023-04-03T12:37:35;2.25;;;1.33;;
12480;SDS011;6305;48.398;11.762;2023-04-03T12:40:15;2.70;;;1.48;;
12480;SDS011;6305;48.398;11.762;2023-04-03T12:45:43;1.85;;;1.50;;
12480;SDS011;6305;48.398;11.762;2023-04-03T12:48:14;2.92;;;1.50;;
12480;SDS011;6305;48.398;11.762;2023-04-03T12:50:44;2.60;;;1.85;;
12480;SDS011;6305;48.398;11.762;2023-04-03T12:53:13;2.72;;;1.27;;
12480;SDS011;6305;48.398;11.762;2023-04-03T12:55:44;2.05;;;1.23;;
12480;SDS011;6305;48.398;11.762;2023-04-03T12:58:21;2.45;;;1.63;;
12480;SDS011;6305;48.398;11.762;2023-04-03T13:01:00;2.65;;;1.48;;
12480;SDS011;6305;48.398;11.762;2023-04-03T13:03:28;2.22;;;1.50;;
12480;SDS011;6305;48.398;11.762;2023-04-03T13:05:58;2.25;;;1.30;;
12480;SDS011;6305;48.398;11.762;2023-04-03T13:08:27;2.20;;;1.35;;
12480;SDS011;6305;48.398;11.762;2023-04-03T13:10:55;2.03;;;1.23;;
12480;SDS011;6305;48.398;11.762;2023-04-03T13:13:25;2.03;;;1.13;;
12480;SDS011;6305;48.398;11.762;2023-04-03T13:15:53;2.10;;;1.40;;
12480;SDS011;6305;48.398;11.762;2023-04-03T13:18:21;3.30;;;1.40;;
12480;SDS011;6305;48.398;11.762;2023-04-03T13:20:55;2.08;;;1.27;;
12480;SDS011;6305;48.398;11.762;2023-04-03T13:23:26;1.73;;;1.48;;
12480;SDS011;6305;48.398;11.762;2023-04-03T13:25:54;2.67;;;1.40;;
12480;SDS011;6305;48.398;11.762;2023-04-03T13:28:26;3.53;;;1.50;;
12480;SDS011;6305;48.398;11.762;2023-04-03T13:30:55;1.20;;;1.10;;
12480;SDS011;6305;48.398;11.762;2023-04-03T13:33:29;1.27;;;1.10;;
12480;SDS011;6305;48.398;11.762;2023-04-03T13:36:01;5.20;;;1.58;;
12480;SDS011;6305;48.398;11.762;2023-04-03T13:38:32;2.13;;;1.38;;
12480;SDS011;6305;48.398;11.762;2023-04-03T13:41:02;2.05;;;1.27;;
12480;SDS011;6305;48.398;11.762;2023-04-03T13:43:33;2.42;;;1.50;;
12480;SDS011;6305;48.398;11.762;2023-04-03T13:46:04;2.63;;;1.27;;
12480;SDS011;6305;48.398;11.762;2023-04-03T13:48:48;1.90;;;1.27;;
12480;SDS011;6305;48.398;11.762;2023-04-03T13:51:19;2.65;;;1.15;;
12480;SDS011;6305;48.398;11.762;2023-04-03T13:53:49;1.40;;;1.20;;
12480;SDS011;6305;48.398;11.762;2023-04-03T13:56:19;2.88;;;1.42;;
12480;SDS011;6305;48.398;11.762;2023-04-03T13:58:54;2.40;;;1.50;;
12480;SDS011;6305;48.398;11.762;2023-04-03T14:01:23;1.58;;;1.27;;
12480;SDS011;6305;48.398;11.762;2023-04-03T14:03:52;2.35;;;1.23;;
12480;SDS011;6305;48.398;11.762;2023-04-03T14:06:23;1.30;;;1.10;;
12480;SDS011;6305;48.398;11.762;2023-04-03T14:08:50;1.80;;;1.25;;
12480;SDS011;6305;48.398;11.762;2023-04-03T14:11:19;1.75;;;1.13;;
12480;SDS011;6305;48.398;11.762;2023-04-03T14:13:47;2.85;;;1.55;;
12480;SDS011;6305;48.398;11.762;2023-04-03T14:16:16;2.33;;;1.30;;
12480;SDS011;6305;48.398;11.762;2023-04-03T14:18:45;1.55;;;1.20;;
12480;SDS011;6305;48.398;11.762;2023-04-03T14:21:14;1.52;;;1.35;;
12480;SDS011;6305;48.398;11.762;2023-04-03T14:23:44;1.92;;;1.25;;
12480;SDS011;6305;48.398;11.762;2023-04-03T14:26:12;1.45;;;1.20;;
12480;SDS011;6305;48.398;11.762;2023-04-03T14:28:41;1.88;;;1.40;;
12480;SDS011;6305;48.398;11.762;2023-04-03T14:31:09;1.98;;;1.30;;
12480;SDS011;6305;48.398;11.762;2023-04-03T14:33:36;2.47;;;1.60;;
12480;SDS011;6305;48.398;11.762;2023-04-03T14:36:09;2.13;;;1.38;;
12480;SDS011;6305;48.398;11.762;2023-04-03T14:38:39;2.63;;;1.35;;
12480;SDS011;6305;48.398;11.762;2023-04-03T14:41:08;1.95;;;1.40;;
12480;SDS011;6305;48.398;11.762;2023-04-03T14:43:38;4.35;;;1.77;;
12480;SDS011;6305;48.398;11.762;2023-04-03T14:46:05;1.48;;;1.27;;
12480;SDS011;6305;48.398;11.762;2023-04-03T14:48:38;1.50;;;1.35;;
12480;SDS011;6305;48.398;11.762;2023-04-03T14:51:06;1.67;;;1.25;;
12480;SDS011;6305;48.398;11.762;2023-04-03T14:53:34;1.98;;;1.30;;
12480;SDS011;6305;48.398;11.762;2023-04-03T14:56:02;2.47;;;1.30;;
12480;SDS011;6305;48.398;11.762;2023-04-03T14:58:32;1.52;;;1.20;;
12480;SDS011;6305;48.398;11.762;2023-04-03T15:01:01;2.47;;;1.40;;
12480;SDS011;6305;48.398;11.762;2023-04-03T15:03:28;1.80;;;1.50;;
12480;SDS011;6305;48.398;11.762;2023-04-03T15:05:55;2.50;;;1.23;;
12480;SDS011;6305;48.398;11.762;2023-04-03T15:08:23;3.15;;;1.80;;
12480;SDS011;6305;48.398;11.762;2023-04-03T15:10:52;1.73;;;1.42;;
12480;SDS011;6305;48.398;11.762;2023-04-03T15:13:20;2.28;;;1.50;;
12480;SDS011;6305;48.398;11.762;2023-04-03T15:15:50;2.08;;;1.40;;
12480;SDS011;6305;48.398;11.762;2023-04-03T15:18:18;2.67;;;1.98;;
12480;SDS011;6305;48.398;11.762;2023-04-03T15:20:46;2.78;;;1.70;;
12480;SDS011;6305;48.398;11.762;2023-04-03T15:23:14;1.88;;;1.42;;
12480;SDS011;6305;48.398;11.762;2023-04-03T15:25:42;1.80;;;1.60;;
12480;SDS011;6305;48.398;11.762;2023-04-03T15:28:09;2.22;;;1.50;;
12480;SDS011;6305;48.398;11.762;2023-04-03T15:30:44;1.70;;;1.45;;
12480;SDS011;6305;48.398;11.762;2023-04-03T15:33:13;1.80;;;1.42;;
12480;SDS011;6305;48.398;11.762;2023-04-03T15:35:40;1.88;;;1.50;;
12480;SDS011;6305;48.398;11.762;2023-04-03T15:38:08;2.58;;;1.60;;